createdAt,value
2018-09-26T00:00:25.101Z,9.30
2018-09-26T00:03:01.693Z,9.20
2018-09-26T00:05:30.829Z,9.30
2018-09-26T00:07:59.497Z,9.30
2018-09-26T00:10:28.100Z,9.30
2018-09-26T00:12:56.728Z,9.40
2018-09-26T00:15:25.160Z,9.30
2018-09-26T00:17:53.794Z,9.30
2018-09-26T00:20:22.433Z,9.40
2018-09-26T00:22:55.368Z,9.30
2018-09-26T00:25:23.676Z,9.30
2018-09-26T00:27:52.432Z,9.30
2018-09-26T00:30:20.986Z,9.30
2018-09-26T00:32:49.652Z,9.30
2018-09-26T00:35:19.504Z,9.30
2018-09-26T00:37:48.431Z,9.30
2018-09-26T00:40:17.712Z,9.30
2018-09-26T00:42:46.432Z,9.30
2018-09-26T00:45:14.957Z,9.20
2018-09-26T00:47:46.663Z,9.20
2018-09-26T00:50:15.325Z,9.20
2018-09-26T00:52:45.031Z,9.20
2018-09-26T00:55:13.440Z,9.20
2018-09-26T00:57:41.973Z,9.10
2018-09-26T01:00:13.604Z,9.10
2018-09-26T01:02:42.320Z,9.10
2018-09-26T01:05:11.028Z,9.10
2018-09-26T01:07:40.168Z,9.10
2018-09-26T01:10:08.517Z,9.10
2018-09-26T01:12:37.025Z,9.20
2018-09-26T01:15:05.853Z,9.20
2018-09-26T01:17:34.470Z,9.20
2018-09-26T01:20:03.076Z,9.20
2018-09-26T01:22:31.588Z,9.20
2018-09-26T01:25:00.308Z,9.20
2018-09-26T01:27:32.922Z,9.20
2018-09-26T01:30:03.998Z,9.20
2018-09-26T01:32:33.235Z,9.20
2018-09-26T01:35:02.372Z,9.20
2018-09-26T01:37:33.544Z,9.20
2018-09-26T01:40:02.157Z,9.20
2018-09-26T01:42:30.579Z,9.30
2018-09-26T01:45:00.393Z,9.30
2018-09-26T01:47:28.761Z,9.20
2018-09-26T01:49:57.384Z,9.20
2018-09-26T01:52:26.091Z,9.20
2018-09-26T01:54:54.917Z,9.20
2018-09-26T01:57:23.521Z,9.20
2018-09-26T01:59:52.116Z,9.20
2018-09-26T02:02:20.751Z,9.20
2018-09-26T02:04:49.377Z,9.20
2018-09-26T02:07:17.980Z,9.20
2018-09-26T02:09:46.707Z,9.20
2018-09-26T02:12:15.375Z,9.20
2018-09-26T02:14:45.271Z,9.20
2018-09-26T02:17:13.618Z,9.10
2018-09-26T02:19:42.251Z,9.20
2018-09-26T02:22:10.958Z,9.20
2018-09-26T02:24:39.589Z,9.20
2018-09-26T02:28:32.603Z,9.20
2018-09-26T02:31:01.865Z,9.30
2018-09-26T02:33:30.480Z,9.30
2018-09-26T02:35:59.174Z,9.30
2018-09-26T02:38:28.796Z,9.30
2018-09-26T02:40:57.376Z,9.30
2018-09-26T02:43:25.909Z,9.20
2018-09-26T02:45:54.876Z,9.30
2018-09-26T02:48:28.917Z,9.30
2018-09-26T02:50:57.926Z,9.30
2018-09-26T02:53:26.465Z,9.30
2018-09-26T02:55:55.600Z,9.30
2018-09-26T02:58:23.838Z,9.40
2018-09-26T03:00:53.348Z,9.30
2018-09-26T03:03:22.070Z,9.40
2018-09-26T03:05:50.617Z,9.30
2018-09-26T03:08:19.237Z,9.30
2018-09-26T03:10:48.827Z,9.40
2018-09-26T03:13:17.294Z,9.40
2018-09-26T03:15:46.059Z,9.40
2018-09-26T03:18:17.830Z,9.40
2018-09-26T03:20:46.675Z,9.40
2018-09-26T03:23:15.505Z,9.40
2018-09-26T03:25:45.283Z,9.40
2018-09-26T03:28:13.912Z,9.40
2018-09-26T03:30:42.750Z,9.40
2018-09-26T03:33:11.221Z,9.40
2018-09-26T03:35:39.841Z,9.40
2018-09-26T03:38:08.669Z,9.40
2018-09-26T03:40:37.466Z,9.40
2018-09-26T03:43:06.191Z,9.40
2018-09-26T03:45:34.800Z,9.50
2018-09-26T03:48:03.545Z,9.50
2018-09-26T03:50:32.160Z,9.50
2018-09-26T03:53:00.684Z,9.50
2018-09-26T03:55:29.464Z,9.50
2018-09-26T03:57:58.104Z,9.50
2018-09-26T04:00:26.640Z,9.50
2018-09-26T04:02:55.208Z,9.50
2018-09-26T04:05:23.943Z,9.50
2018-09-26T04:07:52.551Z,9.60
2018-09-26T04:10:21.276Z,9.60
2018-09-26T04:12:50.123Z,9.60
2018-09-26T04:15:18.353Z,9.60
2018-09-26T04:17:47.129Z,9.60
2018-09-26T04:20:15.766Z,9.70
2018-09-26T04:22:44.388Z,9.70
2018-09-26T04:25:13.334Z,9.70
2018-09-26T04:27:41.853Z,9.70
2018-09-26T04:30:10.528Z,9.70
2018-09-26T04:32:39.289Z,9.80
2018-09-26T04:35:07.873Z,9.80
2018-09-26T04:37:36.572Z,9.80
2018-09-26T04:40:05.413Z,9.80
2018-09-26T04:42:34.274Z,9.80
2018-09-26T04:45:02.786Z,9.80
2018-09-26T04:48:55.900Z,9.80
2018-09-26T04:51:25.332Z,9.80
2018-09-26T04:53:53.875Z,9.80
2018-09-26T04:56:22.589Z,9.80
2018-09-26T04:58:51.233Z,9.80
2018-09-26T05:01:19.868Z,9.80
2018-09-26T05:03:48.810Z,9.80
2018-09-26T05:06:17.333Z,9.80
2018-09-26T05:08:46.028Z,9.90
2018-09-26T05:11:14.562Z,9.90
2018-09-26T05:13:44.500Z,9.90
2018-09-26T05:16:12.856Z,9.90
2018-09-26T05:18:41.460Z,9.90
2018-09-26T05:21:10.080Z,9.90
2018-09-26T05:23:38.919Z,9.90
2018-09-26T05:26:07.664Z,9.90
2018-09-26T05:28:35.920Z,9.90
2018-09-26T05:31:04.562Z,9.90
2018-09-26T05:33:33.196Z,10.00
2018-09-26T05:36:01.730Z,9.90
2018-09-26T05:38:31.492Z,10.00
2018-09-26T05:40:59.923Z,10.00
2018-09-26T05:43:28.745Z,10.00
2018-09-26T05:45:58.880Z,10.00
2018-09-26T05:48:30.133Z,10.00
2018-09-26T05:50:58.549Z,10.00
2018-09-26T05:53:27.482Z,10.00
2018-09-26T05:55:59.225Z,10.10
2018-09-26T05:58:27.646Z,10.00
2018-09-26T06:00:56.181Z,10.10
2018-09-26T06:03:25.472Z,10.10
2018-09-26T06:05:56.621Z,10.10
2018-09-26T06:08:28.548Z,10.10
2018-09-26T06:10:57.306Z,10.10
2018-09-26T06:13:30.214Z,10.20
2018-09-26T06:16:01.889Z,10.20
2018-09-26T06:18:31.628Z,10.30
2018-09-26T06:21:00.417Z,10.30
2018-09-26T06:23:28.868Z,10.30
2018-09-26T06:25:57.626Z,10.30
2018-09-26T06:28:26.254Z,10.40
2018-09-26T06:30:54.885Z,10.40
2018-09-26T06:33:23.575Z,10.50
2018-09-26T06:35:52.028Z,10.50
2018-09-26T06:38:21.179Z,10.50
2018-09-26T06:40:49.427Z,10.60
2018-09-26T06:43:17.958Z,10.60
2018-09-26T06:45:47.740Z,10.70
2018-09-26T06:48:17.907Z,10.80
2018-09-26T06:50:46.956Z,10.80
2018-09-26T06:53:16.100Z,10.80
2018-09-26T06:55:45.144Z,10.90
2018-09-26T06:58:13.502Z,11.00
2018-09-26T07:00:43.034Z,11.00
2018-09-26T07:03:11.660Z,11.10
2018-09-26T07:05:40.311Z,11.10
2018-09-26T07:08:09.062Z,11.20
2018-09-26T07:10:38.672Z,11.20
2018-09-26T07:13:07.316Z,11.30
2018-09-26T07:15:36.077Z,11.30
2018-09-26T07:18:04.791Z,11.40
2018-09-26T07:20:38.956Z,11.50
2018-09-26T07:23:08.134Z,11.60
2018-09-26T07:25:37.664Z,11.70
2018-09-26T07:28:06.221Z,11.70
2018-09-26T07:30:35.081Z,11.80
2018-09-26T07:33:04.441Z,11.90
2018-09-26T07:35:32.983Z,12.00
2018-09-26T07:38:01.633Z,12.00
2018-09-26T07:40:30.269Z,12.20
2018-09-26T07:42:58.902Z,12.30
2018-09-26T07:45:28.889Z,12.30
2018-09-26T07:47:57.141Z,12.40
2018-09-26T07:50:25.670Z,12.40
2018-09-26T07:52:54.554Z,12.50
2018-09-26T07:55:23.130Z,12.60
2018-09-26T07:57:52.587Z,12.70
2018-09-26T08:00:22.328Z,12.80
2018-09-26T08:02:51.250Z,12.90
2018-09-26T08:05:23.042Z,13.00
2018-09-26T08:07:51.575Z,13.00
2018-09-26T08:10:20.114Z,13.10
2018-09-26T08:12:49.053Z,13.10
2018-09-26T08:15:18.815Z,13.30
2018-09-26T08:17:47.245Z,13.40
2018-09-26T08:20:19.197Z,13.60
2018-09-26T08:22:47.652Z,13.80
2018-09-26T08:25:16.268Z,13.90
2018-09-26T08:27:44.913Z,14.00
2018-09-26T08:30:13.714Z,14.20
2018-09-26T08:32:42.129Z,14.30
2018-09-26T08:35:11.684Z,14.40
2018-09-26T08:37:43.260Z,14.50
2018-09-26T08:40:15.004Z,14.50
2018-09-26T08:42:43.676Z,14.60
2018-09-26T08:45:12.293Z,14.70
2018-09-26T08:47:40.961Z,14.80
2018-09-26T08:50:12.922Z,14.80
2018-09-26T08:52:41.237Z,15.10
2018-09-26T08:55:09.984Z,15.30
2018-09-26T08:57:38.518Z,15.50
2018-09-26T09:00:07.697Z,15.60
2018-09-26T09:02:36.741Z,15.80
2018-09-26T09:05:05.312Z,16.00
2018-09-26T09:07:33.947Z,16.10
2018-09-26T09:10:02.558Z,16.20
2018-09-26T09:12:31.443Z,16.40
2018-09-26T09:14:59.988Z,16.50
2018-09-26T09:17:29.628Z,16.70
2018-09-26T09:19:59.247Z,16.80
2018-09-26T09:22:27.785Z,17.00
2018-09-26T09:24:56.606Z,17.10
2018-09-26T09:27:26.785Z,17.30
2018-09-26T09:29:54.959Z,17.40
2018-09-26T09:32:23.580Z,17.50
2018-09-26T09:34:52.192Z,17.50
2018-09-26T09:37:21.001Z,17.50
2018-09-26T09:39:49.554Z,17.50
2018-09-26T09:42:18.266Z,17.50
2018-09-26T09:44:47.118Z,17.70
2018-09-26T09:47:18.560Z,17.80
2018-09-26T09:49:47.403Z,17.90
2018-09-26T09:52:16.118Z,18.00
2018-09-26T09:54:44.832Z,18.10
2018-09-26T09:57:14.491Z,18.20
2018-09-26T09:59:43.373Z,18.20
2018-09-26T10:02:12.656Z,18.20
2018-09-26T10:04:41.178Z,18.30
2018-09-26T10:08:46.911Z,18.50
2018-09-26T10:11:15.836Z,18.60
2018-09-26T10:13:44.698Z,18.50
2018-09-26T10:16:14.212Z,18.50
2018-09-26T10:18:43.321Z,18.50
2018-09-26T10:21:13.694Z,18.70
2018-09-26T10:23:41.966Z,18.60
2018-09-26T10:26:10.929Z,18.60
2018-09-26T10:28:42.445Z,18.50
2018-09-26T10:31:11.609Z,18.70
2018-09-26T10:33:40.065Z,18.80
2018-09-26T10:36:08.884Z,18.80
2018-09-26T10:38:37.617Z,18.90
2018-09-26T10:41:06.270Z,19.10
2018-09-26T10:43:36.081Z,19.10
2018-09-26T10:46:04.716Z,19.10
2018-09-26T10:48:33.546Z,19.10
2018-09-26T10:51:02.280Z,19.20
2018-09-26T10:53:31.732Z,19.30
2018-09-26T10:56:00.769Z,19.40
2018-09-26T10:58:29.136Z,19.50
2018-09-26T11:00:57.744Z,19.50
2018-09-26T11:03:26.636Z,19.50
2018-09-26T11:05:54.980Z,19.50
2018-09-26T11:08:23.541Z,19.40
2018-09-26T11:10:52.047Z,19.30
2018-09-26T11:13:20.740Z,19.40
2018-09-26T11:15:49.508Z,19.40
2018-09-26T11:18:18.158Z,19.40
2018-09-26T11:20:48.233Z,19.60
2018-09-26T11:23:16.609Z,19.80
2018-09-26T11:25:45.257Z,19.80
2018-09-26T11:28:14.351Z,19.90
2018-09-26T11:30:43.563Z,19.80
2018-09-26T11:33:12.186Z,20.00
2018-09-26T11:35:40.660Z,20.00
2018-09-26T11:38:09.538Z,20.00
2018-09-26T11:40:38.254Z,19.90
2018-09-26T11:43:06.820Z,20.00
2018-09-26T11:45:35.505Z,20.00
2018-09-26T11:48:04.356Z,20.00
2018-09-26T11:50:33.389Z,20.10
2018-09-26T11:53:02.092Z,20.10
2018-09-26T11:55:30.834Z,20.20
2018-09-26T11:57:59.356Z,20.20
2018-09-26T12:00:28.202Z,20.10
2018-09-26T12:02:56.923Z,20.10
2018-09-26T12:05:25.770Z,20.30
2018-09-26T12:07:54.200Z,20.20
2018-09-26T12:10:23.593Z,20.20
2018-09-26T12:12:52.380Z,20.30
2018-09-26T12:15:21.165Z,20.30
2018-09-26T12:17:50.974Z,20.40
2018-09-26T12:20:19.574Z,20.40
2018-09-26T12:22:48.021Z,20.40
2018-09-26T12:25:16.654Z,20.50
2018-09-26T12:27:45.837Z,20.40
2018-09-26T12:30:14.431Z,20.40
2018-09-26T12:32:44.716Z,20.40
2018-09-26T12:35:14.096Z,20.50
2018-09-26T12:37:42.788Z,20.40
2018-09-26T12:40:11.270Z,20.30
2018-09-26T12:42:39.962Z,20.40
2018-09-26T12:45:08.450Z,20.30
2018-09-26T12:47:37.396Z,20.30
2018-09-26T12:52:32.330Z,20.30
2018-09-26T12:55:01.340Z,20.60
2018-09-26T12:57:30.184Z,20.50
2018-09-26T12:59:58.840Z,20.60
2018-09-26T13:02:27.681Z,20.50
2018-09-26T13:04:56.387Z,20.50
2018-09-26T13:07:25.237Z,20.60
2018-09-26T13:09:54.199Z,20.50
2018-09-26T13:12:22.644Z,20.40
2018-09-26T13:14:51.549Z,20.60
2018-09-26T13:17:20.285Z,20.80
2018-09-26T13:19:48.968Z,20.90
2018-09-26T13:22:17.571Z,20.90
2018-09-26T13:24:46.384Z,20.90
2018-09-26T13:27:15.073Z,20.70
2018-09-26T13:29:43.803Z,20.60
2018-09-26T13:32:12.584Z,20.80
2018-09-26T13:34:41.225Z,20.90
2018-09-26T13:37:10.052Z,20.80
2018-09-26T13:39:38.633Z,20.80
2018-09-26T13:42:08.430Z,20.60
2018-09-26T13:44:37.105Z,20.60
2018-09-26T13:47:05.936Z,20.60
2018-09-26T13:49:34.619Z,20.60
2018-09-26T13:52:03.280Z,20.60
2018-09-26T13:54:32.166Z,20.60
2018-09-26T13:57:00.790Z,20.50
2018-09-26T13:59:29.432Z,20.50
2018-09-26T14:01:58.057Z,20.50
2018-09-26T14:04:26.814Z,20.60
2018-09-26T14:06:56.548Z,20.40
2018-09-26T14:09:24.978Z,20.50
2018-09-26T14:11:53.732Z,20.60
2018-09-26T14:14:22.372Z,20.60
2018-09-26T14:16:51.000Z,20.60
2018-09-26T14:19:19.630Z,20.50
2018-09-26T14:21:48.460Z,20.40
2018-09-26T14:24:17.114Z,20.60
2018-09-26T14:26:45.909Z,20.60
2018-09-26T14:29:14.729Z,20.70
2018-09-26T14:31:43.329Z,20.60
2018-09-26T14:34:11.877Z,20.40
2018-09-26T14:36:40.643Z,20.30
2018-09-26T14:39:09.588Z,20.30
2018-09-26T14:41:38.045Z,20.20
2018-09-26T14:44:06.766Z,20.40
2018-09-26T14:46:35.449Z,20.40
2018-09-26T14:49:04.687Z,20.50
2018-09-26T14:51:33.651Z,20.40
2018-09-26T14:54:02.248Z,20.40
2018-09-26T14:56:30.906Z,20.60
2018-09-26T14:58:59.669Z,20.50
2018-09-26T15:01:28.293Z,20.50
2018-09-26T15:03:56.924Z,20.40
2018-09-26T15:06:26.007Z,20.20
2018-09-26T15:08:55.941Z,20.00
2018-09-26T15:11:24.523Z,20.10
2018-09-26T15:13:53.371Z,20.10
2018-09-26T15:16:22.264Z,20.10
2018-09-26T15:19:54.095Z,20.20
2018-09-26T15:22:22.659Z,20.10
2018-09-26T15:24:51.531Z,20.10
2018-09-26T15:27:20.320Z,20.20
2018-09-26T15:29:51.857Z,20.30
2018-09-26T15:32:21.708Z,20.30
2018-09-26T15:34:50.253Z,20.40
2018-09-26T15:37:18.965Z,20.20
2018-09-26T15:39:47.806Z,20.30
2018-09-26T15:42:16.770Z,20.30
2018-09-26T15:44:45.378Z,20.30
2018-09-26T15:47:14.233Z,20.30
2018-09-26T15:49:48.711Z,20.30
2018-09-26T15:52:18.380Z,20.20
2018-09-26T15:54:46.887Z,20.20
2018-09-26T15:57:15.612Z,20.20
2018-09-26T15:59:44.413Z,20.10
2018-09-26T16:02:13.187Z,20.00
2018-09-26T16:04:44.856Z,20.00
2018-09-26T16:07:14.240Z,19.80
2018-09-26T16:09:42.459Z,19.70
2018-09-26T16:12:11.070Z,19.50
2018-09-26T16:14:39.856Z,19.40
2018-09-26T16:19:46.324Z,19.10
2018-09-26T16:22:14.889Z,19.00
2018-09-26T16:24:43.583Z,18.70
2018-09-26T16:27:13.753Z,18.60
2018-09-26T16:29:43.137Z,18.50
2018-09-26T16:32:11.905Z,18.30
2018-09-26T16:34:41.524Z,18.30
2018-09-26T16:37:10.309Z,18.20
2018-09-26T16:39:38.993Z,18.10
2018-09-26T16:42:07.845Z,18.10
2018-09-26T16:44:36.445Z,17.90
2018-09-26T16:47:05.374Z,17.80
2018-09-26T16:49:34.464Z,17.70
2018-09-26T16:52:03.141Z,17.60
2018-09-26T16:54:31.929Z,17.50
2018-09-26T16:57:00.744Z,17.50
2018-09-26T16:59:29.716Z,17.40
2018-09-26T17:01:58.532Z,17.30
2018-09-26T17:04:27.441Z,17.30
2018-09-26T17:06:56.260Z,17.20
2018-09-26T17:09:24.789Z,17.10
2018-09-26T17:11:53.349Z,17.10
2018-09-26T17:14:21.956Z,17.00
2018-09-26T17:16:50.977Z,16.90
2018-09-26T17:19:19.446Z,16.80
2018-09-26T17:21:48.418Z,16.80
2018-09-26T17:24:17.520Z,16.70
2018-09-26T17:26:45.947Z,16.70
2018-09-26T17:29:14.356Z,16.60
2018-09-26T17:31:43.060Z,16.60
2018-09-26T17:34:11.836Z,16.60
2018-09-26T17:36:40.497Z,16.50
2018-09-26T17:39:09.717Z,16.40
2018-09-26T17:41:38.024Z,16.40
2018-09-26T17:44:07.033Z,16.30
2018-09-26T17:46:35.564Z,16.30
2018-09-26T17:49:06.210Z,16.30
2018-09-26T17:51:35.417Z,16.30
2018-09-26T17:54:04.219Z,16.30
2018-09-26T17:56:33.276Z,16.20
2018-09-26T17:59:02.105Z,16.20
2018-09-26T18:01:30.797Z,16.20
2018-09-26T18:03:59.477Z,16.20
2018-09-26T18:06:28.422Z,16.20
2018-09-26T18:08:57.440Z,16.10
2018-09-26T18:11:26.032Z,16.10
2018-09-26T18:13:54.733Z,16.00
2018-09-26T18:16:23.671Z,16.00
2018-09-26T18:18:52.380Z,16.00
2018-09-26T18:21:21.292Z,16.00
2018-09-26T18:23:49.916Z,16.00
2018-09-26T18:28:53.765Z,15.90
2018-09-26T18:31:22.269Z,15.90
2018-09-26T18:33:51.106Z,15.80
2018-09-26T18:36:19.832Z,15.80
2018-09-26T18:38:48.456Z,15.80
2018-09-26T18:41:17.452Z,15.80
2018-09-26T18:43:47.340Z,15.80
2018-09-26T18:46:17.310Z,15.70
2018-09-26T18:48:47.180Z,15.70
2018-09-26T18:51:16.435Z,15.70
2018-09-26T18:53:45.487Z,15.70
2018-09-26T18:56:16.113Z,15.70
2018-09-26T18:58:45.652Z,15.70
2018-09-26T19:01:14.177Z,15.70
2018-09-26T19:03:42.963Z,15.60
2018-09-26T19:06:11.563Z,15.60
2018-09-26T19:08:40.693Z,15.60
2018-09-26T19:11:09.459Z,15.60
2018-09-26T19:13:38.008Z,15.60
2018-09-26T19:16:06.866Z,15.60
2018-09-26T19:23:48.257Z,15.50
2018-09-26T19:26:16.812Z,15.50
2018-09-26T19:28:45.643Z,15.60
2018-09-26T19:31:14.073Z,15.50
2018-09-26T19:33:43.187Z,15.60
2018-09-26T19:36:12.653Z,15.60
2018-09-26T19:38:40.972Z,15.60
2018-09-26T19:41:13.851Z,15.50
2018-09-26T19:50:40.608Z,15.60
2018-09-26T19:53:09.327Z,15.50
2018-09-26T19:55:38.061Z,15.50
2018-09-26T19:58:06.777Z,15.50
2018-09-26T20:00:35.429Z,15.50
2018-09-26T20:03:04.689Z,15.50
2018-09-26T20:05:33.730Z,15.50
2018-09-26T20:08:02.623Z,15.40
2018-09-26T20:10:31.877Z,15.40
2018-09-26T20:13:01.786Z,15.40
2018-09-26T20:15:30.876Z,15.40
2018-09-26T20:17:59.896Z,15.30
2018-09-26T20:20:29.621Z,15.40
2018-09-26T20:22:57.995Z,15.40
2018-09-26T20:25:26.470Z,15.40
2018-09-26T20:27:55.217Z,15.40
2018-09-26T20:30:24.068Z,15.40
2018-09-26T20:32:52.633Z,15.40
2018-09-26T20:35:21.210Z,15.40
2018-09-26T20:37:49.704Z,15.30
2018-09-26T20:40:18.213Z,15.40
2018-09-26T20:42:46.852Z,15.30
2018-09-26T20:45:15.398Z,15.30
2018-09-26T20:47:44.329Z,15.40
2018-09-26T20:50:12.581Z,15.30
2018-09-26T20:52:41.273Z,15.20
2018-09-26T20:55:09.954Z,15.20
2018-09-26T20:57:41.678Z,15.10
2018-09-26T21:00:10.171Z,15.10
2018-09-26T21:02:38.741Z,15.00
2018-09-26T21:05:07.461Z,15.00
2018-09-26T21:07:35.840Z,14.90
2018-09-26T21:10:04.458Z,14.80
2018-09-26T21:12:34.356Z,14.70
2018-09-26T21:15:02.711Z,14.70
2018-09-26T21:17:31.373Z,14.60
2018-09-26T21:19:59.984Z,14.60
2018-09-26T21:22:28.432Z,14.50
2018-09-26T21:24:57.157Z,14.50
2018-09-26T21:27:25.793Z,14.50
2018-09-26T21:29:54.332Z,14.50
2018-09-26T21:32:22.906Z,14.50
2018-09-26T21:34:51.730Z,14.50
2018-09-26T21:37:20.489Z,14.40
2018-09-26T21:39:49.113Z,14.50
2018-09-26T21:42:18.868Z,14.50
2018-09-26T21:44:47.550Z,14.50
2018-09-26T21:47:17.076Z,14.50
2018-09-26T21:49:45.806Z,14.50
2018-09-26T21:52:14.850Z,14.50
2018-09-26T21:54:43.153Z,14.40
2018-09-26T21:57:11.986Z,14.40
2018-09-26T21:59:41.522Z,14.40
2018-09-26T22:02:10.129Z,14.30
2018-09-26T22:04:38.705Z,14.40
2018-09-26T22:07:07.310Z,14.50
2018-09-26T22:09:36.090Z,14.50
2018-09-26T22:12:05.247Z,14.40
2018-09-26T22:14:34.365Z,14.40
2018-09-26T22:17:03.012Z,14.40
2018-09-26T22:19:31.982Z,14.30
2018-09-26T22:22:01.020Z,14.30
2018-09-26T22:24:30.683Z,14.30
2018-09-26T22:27:00.337Z,14.30
2018-09-26T22:29:29.124Z,14.30
2018-09-26T22:31:57.734Z,14.30
2018-09-26T22:34:26.326Z,14.30
2018-09-26T22:36:55.818Z,14.30
2018-09-26T22:39:25.000Z,14.30
2018-09-26T22:41:54.108Z,14.40
2018-09-26T22:44:22.672Z,14.40
2018-09-26T22:46:51.507Z,14.40
2018-09-26T22:49:20.093Z,14.40
2018-09-26T22:51:49.859Z,14.40
2018-09-26T22:54:19.136Z,14.40
2018-09-26T22:56:47.757Z,14.40
2018-09-26T22:59:16.388Z,14.40
2018-09-26T23:01:44.833Z,14.40
2018-09-26T23:04:13.476Z,14.40
2018-09-26T23:06:42.184Z,14.30
2018-09-26T23:09:11.756Z,14.40
2018-09-26T23:11:40.701Z,14.40
2018-09-26T23:14:09.037Z,14.40
2018-09-26T23:16:37.768Z,14.50
2018-09-26T23:19:06.471Z,14.50
2018-09-26T23:21:34.912Z,14.50
2018-09-26T23:24:03.539Z,14.50
2018-09-26T23:26:33.095Z,14.50
2018-09-26T23:29:02.964Z,14.50
2018-09-26T23:31:31.694Z,14.50
2018-09-26T23:34:01.258Z,14.50
2018-09-26T23:36:29.999Z,14.50
2018-09-26T23:38:59.112Z,14.50
2018-09-26T23:41:27.480Z,14.60
2018-09-26T23:43:56.141Z,14.60
2018-09-26T23:46:25.260Z,14.70
2018-09-26T23:48:53.493Z,14.70
2018-09-26T23:51:22.131Z,14.70
2018-09-26T23:53:50.863Z,14.70
2018-09-26T23:56:19.630Z,14.70
2018-09-26T23:58:48.157Z,14.70
